Time;durP1;ratioP1;P1;durP2;ratioP2;P2;SDS_P1;SDS_P2;PMS_P1;PMS_P2;Temp;Humidity;BMP_temperature;BMP_pressure;BME280_temperature;BME280_humidity;BME280_pressure;Samples;Min_cycle;Max_cycle;Signal;HPM_P1;HPM_P2
2024/01/29 00:01:53;;;;;;;2.10;1.70;;;6.10;99.90;;;;;;5040760;28;20658;-46
2024/01/29 00:04:21;;;;;;;3.00;1.80;;;6.10;99.90;;;;;;5048923;28;20209;-46
2024/01/29 00:06:50;;;;;;;2.65;2.30;;;6.10;99.90;;;;;;5035664;28;20243;-47
2024/01/29 00:09:19;;;;;;;3.45;2.20;;;6.10;99.90;;;;;;5043023;28;20825;-46
2024/01/29 00:11:47;;;;;;;2.15;1.60;;;6.10;99.90;;;;;;5046073;28;20296;-46
2024/01/29 00:14:15;;;;;;;2.75;2.10;;;6.10;99.90;;;;;;5022158;28;20213;-46
2024/01/29 00:16:46;;;;;;;2.47;2.20;;;6.10;99.90;;;;;;5040546;28;20311;-46
2024/01/29 00:19:14;;;;;;;2.63;2.00;;;6.10;99.90;;;;;;5041358;28;20232;-46
2024/01/29 00:21:43;;;;;;;2.47;1.80;;;6.10;99.90;;;;;;5045228;28;20213;-47
2024/01/29 00:24:11;;;;;;;2.65;2.17;;;6.10;99.90;;;;;;5043841;28;20290;-46
2024/01/29 00:26:39;;;;;;;3.10;2.47;;;6.10;99.90;;;;;;5036899;28;20196;-46
2024/01/29 00:29:07;;;;;;;3.05;2.17;;;6.10;99.90;;;;;;5046315;28;20217;-46
2024/01/29 00:31:35;;;;;;;2.42;1.85;;;6.10;99.90;;;;;;5039586;28;20211;-45
2024/01/29 00:34:05;;;;;;;3.17;2.10;;;6.10;99.90;;;;;;5045628;28;20307;-46
2024/01/29 00:36:34;;;;;;;2.55;2.05;;;6.10;99.90;;;;;;5046458;28;20213;-45
2024/01/29 00:39:06;;;;;;;2.78;2.15;;;6.10;99.90;;;;;;5043232;28;20236;-46
2024/01/29 00:41:34;;;;;;;3.67;2.10;;;6.10;99.90;;;;;;5046984;28;20670;-45
2024/01/29 00:44:03;;;;;;;3.47;2.10;;;6.10;99.90;;;;;;5052191;28;20216;-45
2024/01/29 00:46:32;;;;;;;3.72;2.40;;;6.10;99.90;;;;;;5042106;28;20242;-46
2024/01/29 00:49:00;;;;;;;2.97;2.25;;;6.10;99.90;;;;;;5049067;28;20220;-46
2024/01/29 00:51:29;;;;;;;2.28;1.85;;;6.10;99.90;;;;;;5049482;28;20192;-45
2024/01/29 00:53:57;;;;;;;2.35;1.70;;;6.10;99.90;;;;;;5048691;28;20224;-47
2024/01/29 00:56:25;;;;;;;3.47;1.90;;;6.10;99.90;;;;;;5045422;28;20201;-46
2024/01/29 00:58:53;;;;;;;5.07;2.03;;;6.10;99.90;;;;;;5049264;28;20228;-46
2024/01/29 01:01:21;;;;;;;2.53;1.83;;;6.10;99.90;;;;;;5040416;28;20223;-46
2024/01/29 01:03:50;;;;;;;2.85;2.10;;;6.10;99.90;;;;;;5047080;28;20217;-46
2024/01/29 01:06:18;;;;;;;2.63;2.40;;;6.10;99.90;;;;;;5049252;28;20186;-44
2024/01/29 01:08:48;;;;;;;3.08;2.13;;;6.10;99.90;;;;;;5047786;28;20220;-45
2024/01/29 01:11:18;;;;;;;2.78;2.05;;;6.10;99.90;;;;;;5038454;28;20203;-46
2024/01/29 01:13:49;;;;;;;2.95;2.03;;;6.10;99.90;;;;;;5046538;28;20224;-46
2024/01/29 01:16:17;;;;;;;2.88;1.92;;;6.10;99.90;;;;;;5039124;28;20205;-46
2024/01/29 01:18:45;;;;;;;3.35;2.13;;;6.10;99.90;;;;;;5047807;28;20240;-46
2024/01/29 01:21:14;;;;;;;3.40;2.40;;;6.10;99.90;;;;;;5044388;28;20259;-46
2024/01/29 01:23:42;;;;;;;2.80;2.28;;;6.10;99.90;;;;;;5043634;28;20217;-46
2024/01/29 01:26:11;;;;;;;3.25;1.90;;;6.10;99.90;;;;;;5047521;28;20246;-46
2024/01/29 01:28:40;;;;;;;2.50;2.03;;;6.10;99.90;;;;;;5040868;28;20606;-45
2024/01/29 01:31:08;;;;;;;3.30;2.45;;;6.10;99.90;;;;;;5042709;28;20185;-46
2024/01/29 01:33:36;;;;;;;2.92;2.28;;;6.10;99.90;;;;;;5048262;28;20225;-46
2024/01/29 01:36:05;;;;;;;4.72;2.58;;;6.10;99.90;;;;;;5047521;28;20246;-45
2024/01/29 01:38:33;;;;;;;2.42;1.85;;;6.10;99.90;;;;;;5046200;28;20217;-46
2024/01/29 01:41:01;;;;;;;3.17;2.50;;;6.10;99.90;;;;;;5046789;28;20567;-45
2024/01/29 01:43:30;;;;;;;2.53;1.90;;;6.10;99.90;;;;;;5044613;28;20798;-45
2024/01/29 01:46:14;;;;;;;4.65;2.10;;;6.10;99.90;;;;;;5042807;28;20209;-46
2024/01/29 01:48:43;;;;;;;4.82;2.83;;;6.00;99.90;;;;;;5043929;28;20274;-45
2024/01/29 01:51:12;;;;;;;2.70;1.88;;;6.10;99.90;;;;;;5047008;28;20620;-45
2024/01/29 01:53:41;;;;;;;2.95;2.00;;;6.10;99.90;;;;;;5050711;28;20225;-46
2024/01/29 01:56:10;;;;;;;3.08;2.30;;;6.10;99.90;;;;;;5050399;28;20201;-46
2024/01/29 01:58:41;;;;;;;3.20;2.38;;;6.10;99.90;;;;;;5051373;28;20270;-46
2024/01/29 02:01:10;;;;;;;2.25;1.85;;;6.10;99.90;;;;;;5042213;28;20208;-46
2024/01/29 02:03:40;;;;;;;3.45;2.35;;;6.10;99.90;;;;;;5048133;28;20220;-46
2024/01/29 02:06:08;;;;;;;3.38;2.30;;;6.10;99.90;;;;;;5045083;28;20263;-46
2024/01/29 02:08:36;;;;;;;2.40;1.60;;;6.10;99.90;;;;;;5048128;28;20636;-45
2024/01/29 02:11:04;;;;;;;3.20;2.08;;;6.10;99.90;;;;;;5043692;28;21888;-45
2024/01/29 02:13:33;;;;;;;3.58;2.53;;;6.10;99.90;;;;;;5044907;28;20772;-45
2024/01/29 02:16:03;;;;;;;2.58;1.83;;;6.10;99.90;;;;;;5042488;28;20560;-45
2024/01/29 02:18:32;;;;;;;2.85;1.92;;;6.10;99.90;;;;;;5046743;28;20757;-46
2024/01/29 02:21:00;;;;;;;3.88;1.77;;;6.10;99.90;;;;;;5045673;28;20239;-46
2024/01/29 02:23:29;;;;;;;2.42;1.85;;;6.10;99.90;;;;;;5045042;28;20221;-45
2024/01/29 02:25:58;;;;;;;2.40;1.75;;;6.10;99.90;;;;;;5045034;28;20193;-46
2024/01/29 02:28:27;;;;;;;2.42;1.80;;;6.10;99.90;;;;;;5043569;28;20220;-46
2024/01/29 02:30:56;;;;;;;4.13;1.92;;;6.10;99.90;;;;;;5041752;28;20198;-46
2024/01/29 02:33:24;;;;;;;2.95;2.00;;;6.10;99.90;;;;;;5045846;28;20694;-46
2024/01/29 02:35:52;;;;;;;3.97;2.25;;;6.10;99.90;;;;;;5050969;28;20197;-45
2024/01/29 02:38:20;;;;;;;3.17;1.98;;;6.10;99.90;;;;;;5037676;28;20227;-45
2024/01/29 02:40:50;;;;;;;2.70;1.90;;;6.10;99.90;;;;;;5047396;28;20208;-45
2024/01/29 02:43:18;;;;;;;4.25;3.30;;;6.10;99.90;;;;;;5050784;28;20239;-46
2024/01/29 02:45:47;;;;;;;3.00;2.03;;;6.00;99.90;;;;;;5042987;28;20212;-46
2024/01/29 02:48:15;;;;;;;3.65;2.13;;;6.00;99.90;;;;;;5042553;28;20267;-46
2024/01/29 02:50:43;;;;;;;2.38;1.40;;;6.00;99.90;;;;;;5036657;28;20196;-45
2024/01/29 02:53:12;;;;;;;3.67;1.75;;;6.00;99.90;;;;;;5050089;28;20307;-46
2024/01/29 02:55:40;;;;;;;3.13;1.92;;;6.00;99.90;;;;;;5047492;28;20228;-46
2024/01/29 02:58:09;;;;;;;2.80;2.38;;;6.00;99.90;;;;;;5047565;28;20248;-46
2024/01/29 03:00:37;;;;;;;2.80;2.10;;;6.00;99.90;;;;;;5046662;28;20201;-46
2024/01/29 03:03:05;;;;;;;3.95;2.15;;;6.00;99.90;;;;;;5047752;28;20315;-46
2024/01/29 03:05:33;;;;;;;3.53;1.92;;;6.00;99.90;;;;;;5047780;28;20254;-46
2024/01/29 03:08:02;;;;;;;3.20;2.45;;;6.00;99.90;;;;;;5045355;28;20192;-46
2024/01/29 03:10:30;;;;;;;2.47;1.60;;;6.00;99.90;;;;;;5045413;28;20189;-46
2024/01/29 03:12:57;;;;;;;2.28;1.83;;;6.00;99.90;;;;;;5049414;28;20259;-46
2024/01/29 03:15:27;;;;;;;2.35;1.77;;;6.00;99.90;;;;;;5045922;28;20193;-46
2024/01/29 03:17:55;;;;;;;2.85;1.70;;;6.00;99.90;;;;;;5041387;28;20323;-47
2024/01/29 03:20:24;;;;;;;3.15;1.90;;;6.00;99.90;;;;;;5045490;28;20332;-46
2024/01/29 03:22:52;;;;;;;2.53;1.95;;;6.00;99.90;;;;;;5046679;28;20213;-46
2024/01/29 03:25:24;;;;;;;2.67;1.80;;;6.00;99.90;;;;;;5044748;28;20279;-46
2024/01/29 03:27:52;;;;;;;3.00;1.80;;;6.00;99.90;;;;;;5047580;28;20200;-45
2024/01/29 03:30:20;;;;;;;2.35;1.65;;;6.00;99.90;;;;;;5044022;28;20470;-46
2024/01/29 03:32:51;;;;;;;2.20;1.55;;;6.00;99.90;;;;;;5042676;28;20217;-46
2024/01/29 03:35:19;;;;;;;2.33;1.55;;;6.00;99.90;;;;;;5044398;28;20197;-45
2024/01/29 03:37:47;;;;;;;2.72;2.13;;;6.00;99.90;;;;;;5047298;28;20714;-46
2024/01/29 03:40:16;;;;;;;3.40;2.75;;;6.00;99.90;;;;;;5040943;28;20217;-46
2024/01/29 03:42:44;;;;;;;4.82;2.40;;;6.00;99.90;;;;;;5044643;28;20217;-45
2024/01/29 03:45:14;;;;;;;2.33;1.80;;;6.00;99.90;;;;;;5040988;28;20219;-44
2024/01/29 03:47:42;;;;;;;3.03;2.35;;;6.00;99.90;;;;;;5047130;28;20575;-45
2024/01/29 03:50:12;;;;;;;2.28;1.45;;;6.00;99.90;;;;;;5043147;28;20255;-46
2024/01/29 03:52:40;;;;;;;3.08;1.75;;;6.00;99.90;;;;;;5038733;28;20243;-46
2024/01/29 03:55:09;;;;;;;2.30;2.10;;;6.00;99.90;;;;;;5042564;28;20708;-47
2024/01/29 03:57:38;;;;;;;3.17;1.98;;;6.00;99.90;;;;;;5044713;28;20204;-45
2024/01/29 04:00:09;;;;;;;3.45;1.75;;;6.00;99.90;;;;;;5042915;28;20593;-46
2024/01/29 04:02:40;;;;;;;1.95;1.55;;;6.00;99.90;;;;;;5042578;28;20227;-45
2024/01/29 04:05:10;;;;;;;3.17;1.90;;;6.00;99.90;;;;;;5048118;28;20248;-45
2024/01/29 04:07:40;;;;;;;2.75;2.28;;;6.00;99.90;;;;;;5040649;28;20200;-45
2024/01/29 04:10:08;;;;;;;2.83;2.10;;;6.00;99.90;;;;;;5043338;28;20242;-46
2024/01/29 04:12:36;;;;;;;3.25;2.00;;;6.00;99.90;;;;;;5044107;28;20227;-46
2024/01/29 04:15:05;;;;;;;2.60;1.95;;;6.00;99.90;;;;;;5044322;28;20706;-46
2024/01/29 04:17:33;;;;;;;2.90;2.20;;;6.00;99.90;;;;;;5040574;28;20213;-45
2024/01/29 04:20:01;;;;;;;2.38;1.67;;;6.00;99.90;;;;;;5046028;28;20216;-46
2024/01/29 04:22:32;;;;;;;2.65;1.88;;;6.00;99.90;;;;;;5046423;28;20634;-45
2024/01/29 04:25:00;;;;;;;3.08;2.55;;;6.00;99.90;;;;;;5043131;28;20304;-45
2024/01/29 04:27:29;;;;;;;5.65;2.25;;;6.00;99.90;;;;;;5042257;28;20271;-46
2024/01/29 04:29:57;;;;;;;3.35;2.00;;;6.00;99.90;;;;;;5045594;28;20756;-45
2024/01/29 04:32:25;;;;;;;2.97;1.65;;;6.00;99.90;;;;;;5037643;28;20208;-45
2024/01/29 04:34:53;;;;;;;2.20;1.95;;;6.00;99.90;;;;;;5044760;28;20312;-46
2024/01/29 04:37:21;;;;;;;3.20;1.95;;;6.00;99.90;;;;;;5045015;28;20194;-45
2024/01/29 04:39:51;;;;;;;2.83;1.90;;;6.00;99.90;;;;;;5042801;28;20587;-46
2024/01/29 04:42:19;;;;;;;2.25;1.55;;;5.90;99.90;;;;;;5041821;28;20323;-46
2024/01/29 04:44:47;;;;;;;2.40;1.52;;;6.00;99.90;;;;;;5047812;28;20213;-46
2024/01/29 04:47:16;;;;;;;2.60;1.92;;;6.00;99.90;;;;;;5039970;28;20658;-46
2024/01/29 04:49:44;;;;;;;3.25;1.90;;;6.00;99.90;;;;;;5043220;28;20224;-46
2024/01/29 04:52:12;;;;;;;2.40;1.55;;;6.00;99.90;;;;;;5042665;28;20209;-45
2024/01/29 04:54:40;;;;;;;2.10;1.90;;;6.00;99.90;;;;;;5045643;28;20225;-46
2024/01/29 04:57:10;;;;;;;2.83;1.90;;;6.00;99.90;;;;;;5044445;28;20199;-45
2024/01/29 04:59:38;;;;;;;2.20;1.98;;;5.90;99.90;;;;;;5043994;28;20217;-46
2024/01/29 05:02:06;;;;;;;2.17;1.70;;;5.90;99.90;;;;;;5038860;28;20216;-46
2024/01/29 05:04:35;;;;;;;2.80;1.65;;;5.90;99.90;;;;;;5045080;28;20274;-46
2024/01/29 05:07:03;;;;;;;3.80;2.55;;;5.90;99.90;;;;;;5044406;28;20227;-46
2024/01/29 05:09:31;;;;;;;3.65;2.15;;;5.90;99.90;;;;;;5038273;28;20232;-46
2024/01/29 05:11:59;;;;;;;2.45;2.10;;;5.90;99.90;;;;;;5044104;28;20291;-46
2024/01/29 05:14:29;;;;;;;3.20;1.58;;;5.90;99.90;;;;;;5042747;28;20291;-46
2024/01/29 05:16:57;;;;;;;2.30;1.90;;;5.90;99.90;;;;;;5043293;28;20203;-46
2024/01/29 05:19:25;;;;;;;3.58;2.17;;;5.90;99.90;;;;;;5046062;28;20224;-45
2024/01/29 05:21:53;;;;;;;2.30;1.52;;;5.90;99.90;;;;;;5047897;28;20271;-45
2024/01/29 05:24:21;;;;;;;3.35;2.15;;;5.90;99.90;;;;;;5026209;28;20248;-46
2024/01/29 05:26:50;;;;;;;4.60;2.03;;;5.90;99.90;;;;;;5048587;28;20192;-45
2024/01/29 05:29:18;;;;;;;2.90;1.77;;;5.90;99.90;;;;;;5044591;28;20223;-46
2024/01/29 05:31:47;;;;;;;3.30;1.90;;;5.90;99.90;;;;;;5044000;28;20666;-45
2024/01/29 05:34:16;;;;;;;2.95;2.30;;;5.90;99.90;;;;;;5044414;28;20290;-46
2024/01/29 05:36:45;;;;;;;2.00;1.42;;;5.90;99.90;;;;;;5049791;28;20266;-46
2024/01/29 05:39:13;;;;;;;3.15;2.15;;;5.90;99.90;;;;;;5046572;28;20285;-46
2024/01/29 05:41:41;;;;;;;1.88;1.50;;;5.90;99.90;;;;;;5047035;28;20243;-46
2024/01/29 05:44:10;;;;;;;2.50;1.88;;;5.90;99.90;;;;;;5048606;28;20238;-46
2024/01/29 05:46:41;;;;;;;4.63;4.22;;;5.90;99.90;;;;;;5042570;28;20208;-46
2024/01/29 05:49:10;;;;;;;3.38;1.90;;;5.90;99.90;;;;;;5046175;28;20209;-45
2024/01/29 05:51:39;;;;;;;3.65;1.70;;;5.90;99.90;;;;;;5048798;28;20670;-45
2024/01/29 05:54:07;;;;;;;1.73;1.50;;;5.90;99.90;;;;;;5048429;28;20227;-46
2024/01/29 05:56:42;;;;;;;2.65;1.90;;;5.90;99.90;;;;;;5047813;28;20192;-46
2024/01/29 05:59:11;;;;;;;3.08;1.90;;;5.90;99.90;;;;;;5045787;28;20229;-46
2024/01/29 06:01:39;;;;;;;2.55;1.80;;;5.90;99.90;;;;;;5042924;28;20204;-46
2024/01/29 06:04:08;;;;;;;2.72;1.65;;;5.90;99.90;;;;;;5047813;28;20216;-45
2024/01/29 06:06:38;;;;;;;3.03;2.17;;;5.90;99.90;;;;;;5047576;28;20189;-45
2024/01/29 06:09:06;;;;;;;3.30;2.05;;;5.90;99.90;;;;;;5030333;28;20213;-45
2024/01/29 06:11:35;;;;;;;2.67;1.75;;;5.90;99.90;;;;;;5050733;28;20204;-46
2024/01/29 06:14:03;;;;;;;3.55;2.15;;;5.90;99.90;;;;;;5048925;28;20224;-46
2024/01/29 06:16:32;;;;;;;2.25;1.80;;;5.90;99.90;;;;;;5041583;28;20216;-45
2024/01/29 06:19:01;;;;;;;2.55;1.83;;;5.90;99.90;;;;;;5050830;28;20223;-45
2024/01/29 06:21:29;;;;;;;3.58;2.05;;;5.90;99.90;;;;;;5049810;28;20198;-46
2024/01/29 06:23:59;;;;;;;3.30;2.45;;;5.90;99.90;;;;;;5047009;28;20307;-46
2024/01/29 06:26:27;;;;;;;2.00;1.60;;;5.90;99.90;;;;;;5048021;28;20255;-46
2024/01/29 06:28:55;;;;;;;2.30;1.70;;;5.90;99.90;;;;;;5032149;28;20217;-46
2024/01/29 06:31:24;;;;;;;2.35;1.55;;;5.90;99.90;;;;;;5039440;28;20200;-45
2024/01/29 06:33:54;;;;;;;2.50;1.50;;;5.90;99.90;;;;;;5048728;28;20697;-45
2024/01/29 06:36:25;;;;;;;3.25;1.80;;;5.90;99.90;;;;;;5046286;28;20270;-46
2024/01/29 06:38:53;;;;;;;2.75;2.47;;;5.90;99.90;;;;;;5048021;28;20520;-46
2024/01/29 06:41:24;;;;;;;3.05;1.90;;;5.90;99.90;;;;;;5045373;28;20205;-45
2024/01/29 06:43:54;;;;;;;3.75;2.40;;;5.90;99.90;;;;;;5049094;28;20636;-46
2024/01/29 06:46:23;;;;;;;3.25;2.25;;;5.90;99.90;;;;;;5043606;28;20273;-45
2024/01/29 06:48:51;;;;;;;3.47;1.85;;;5.80;99.90;;;;;;5048798;28;20246;-46
2024/01/29 06:51:20;;;;;;;4.45;1.80;;;5.90;99.90;;;;;;5046848;28;20208;-45
2024/01/29 06:53:48;;;;;;;2.25;1.60;;;5.80;99.90;;;;;;5046817;28;20300;-46
2024/01/29 06:56:16;;;;;;;3.50;2.33;;;5.90;99.90;;;;;;5044613;28;20201;-46
2024/01/29 06:58:46;;;;;;;2.90;1.88;;;5.90;99.90;;;;;;5046787;28;20220;-45
2024/01/29 07:01:19;;;;;;;3.30;2.13;;;5.90;99.90;;;;;;5039604;28;20211;-46
2024/01/29 07:03:47;;;;;;;2.50;1.77;;;5.90;99.90;;;;;;5048440;28;20304;-45
2024/01/29 07:06:17;;;;;;;2.88;1.80;;;5.90;99.90;;;;;;5045949;28;20220;-46
2024/01/29 07:08:45;;;;;;;2.53;1.45;;;5.80;99.90;;;;;;5044156;28;20220;-45
2024/01/29 07:11:13;;;;;;;4.78;2.50;;;5.80;99.90;;;;;;5045910;28;20192;-46
2024/01/29 07:13:41;;;;;;;3.05;2.40;;;5.80;99.90;;;;;;5040569;28;20304;-46
2024/01/29 07:16:11;;;;;;;2.45;1.90;;;5.80;99.90;;;;;;5027588;28;20201;-45
2024/01/29 07:18:39;;;;;;;2.63;2.03;;;5.80;99.90;;;;;;5048055;28;20235;-46
2024/01/29 07:21:09;;;;;;;2.53;1.70;;;5.80;99.90;;;;;;5047606;28;20212;-45
2024/01/29 07:23:37;;;;;;;2.13;1.70;;;5.90;99.90;;;;;;5047868;28;20218;-45
2024/01/29 07:26:05;;;;;;;2.78;2.15;;;5.80;99.90;;;;;;5045499;28;20670;-46
2024/01/29 07:28:33;;;;;;;3.65;1.98;;;5.80;99.90;;;;;;5045252;28;20224;-47
2024/01/29 07:31:02;;;;;;;3.00;2.15;;;5.80;99.90;;;;;;5039520;28;20193;-45
2024/01/29 07:33:31;;;;;;;2.40;1.75;;;5.80;99.90;;;;;;5045264;28;20219;-46
2024/01/29 07:35:59;;;;;;;3.25;2.20;;;5.80;99.90;;;;;;5047493;28;20220;-45
2024/01/29 07:38:27;;;;;;;2.72;1.88;;;5.80;99.90;;;;;;5045814;28;20590;-47
2024/01/29 07:40:56;;;;;;;6.32;2.40;;;5.80;99.90;;;;;;5045461;28;20633;-45
2024/01/29 07:43:24;;;;;;;3.15;2.17;;;5.80;99.90;;;;;;5047776;28;20229;-46
2024/01/29 07:45:52;;;;;;;3.13;1.80;;;5.80;99.90;;;;;;5041477;28;20185;-45
2024/01/29 07:48:21;;;;;;;3.08;2.53;;;5.80;99.90;;;;;;5047216;28;20303;-45
2024/01/29 07:50:51;;;;;;;3.22;1.80;;;5.80;99.90;;;;;;5047492;28;20254;-45
2024/01/29 07:53:19;;;;;;;3.40;2.42;;;5.80;99.90;;;;;;5045993;28;20609;-45
2024/01/29 07:55:47;;;;;;;3.67;2.35;;;5.80;99.90;;;;;;5045651;28;20197;-45
2024/01/29 07:58:15;;;;;;;2.40;2.10;;;5.80;99.90;;;;;;5047415;28;20216;-46
2024/01/29 08:00:43;;;;;;;3.22;2.05;;;5.80;99.90;;;;;;5041677;28;20633;-45
2024/01/29 08:03:11;;;;;;;3.42;2.20;;;5.80;99.90;;;;;;5042453;28;20216;-45
2024/01/29 08:05:40;;;;;;;2.90;2.17;;;5.80;99.90;;;;;;5039608;28;20189;-46
2024/01/29 08:08:10;;;;;;;2.63;1.83;;;5.80;99.90;;;;;;5044880;28;20616;-45
2024/01/29 08:10:43;;;;;;;2.65;1.80;;;5.80;99.90;;;;;;5044117;28;20211;-45
2024/01/29 08:13:15;;;;;;;4.80;1.95;;;5.80;99.90;;;;;;5043298;28;20728;-45
2024/01/29 08:15:44;;;;;;;3.78;2.55;;;5.80;99.90;;;;;;5043452;28;20208;-46
2024/01/29 08:18:12;;;;;;;2.53;1.90;;;5.80;99.90;;;;;;5028396;28;20733;-45
2024/01/29 08:20:40;;;;;;;2.85;1.90;;;5.80;99.90;;;;;;5046311;28;20298;-45
2024/01/29 08:23:10;;;;;;;2.35;1.75;;;5.80;99.90;;;;;;5044692;28;20216;-45
2024/01/29 08:25:39;;;;;;;3.65;2.72;;;5.80;99.90;;;;;;5048032;28;20188;-45
2024/01/29 08:28:07;;;;;;;2.63;1.90;;;5.80;99.90;;;;;;5032614;28;20197;-46
2024/01/29 08:30:35;;;;;;;2.70;1.52;;;5.80;99.90;;;;;;5035161;28;20193;-45
2024/01/29 08:33:05;;;;;;;3.10;1.88;;;5.80;99.90;;;;;;5043735;28;20212;-46
2024/01/29 08:35:33;;;;;;;2.40;1.67;;;5.80;99.90;;;;;;5048238;28;20243;-45
2024/01/29 08:38:01;;;;;;;3.05;2.17;;;5.80;99.90;;;;;;5045120;28;20204;-45
2024/01/29 08:40:35;;;;;;;2.92;1.88;;;5.80;99.90;;;;;;5041666;28;20584;-46
2024/01/29 08:43:03;;;;;;;3.03;2.08;;;5.80;99.90;;;;;;5047598;28;20763;-46
2024/01/29 08:45:31;;;;;;;3.08;1.95;;;5.80;99.90;;;;;;5042203;28;20201;-46
2024/01/29 08:48:03;;;;;;;2.85;1.70;;;5.80;99.90;;;;;;5042153;28;20193;-46
2024/01/29 08:50:33;;;;;;;2.22;1.63;;;5.80;99.90;;;;;;5046883;28;20546;-47
2024/01/29 08:53:02;;;;;;;2.15;1.73;;;5.80;99.90;;;;;;5044289;28;20504;-46
2024/01/29 08:55:31;;;;;;;3.63;2.17;;;5.80;99.90;;;;;;5042462;28;20210;-46
2024/01/29 08:58:03;;;;;;;3.30;2.30;;;5.80;99.90;;;;;;5049165;28;20193;-46
2024/01/29 09:00:32;;;;;;;2.40;1.60;;;5.80;99.90;;;;;;5045523;28;20227;-45
2024/01/29 09:03:00;;;;;;;2.15;1.50;;;5.80;99.90;;;;;;5045443;28;20221;-46
2024/01/29 09:05:28;;;;;;;2.00;1.80;;;5.80;99.90;;;;;;5049415;28;20272;-45
2024/01/29 09:07:58;;;;;;;2.75;2.00;;;5.80;99.90;;;;;;5050447;28;20480;-46
2024/01/29 09:10:36;;;;;;;2.30;1.65;;;5.80;99.90;;;;;;5041976;28;20255;-46
2024/01/29 09:13:08;;;;;;;2.95;1.95;;;5.80;99.90;;;;;;5032299;28;20213;-50
2024/01/29 09:15:37;;;;;;;2.00;1.50;;;5.80;99.90;;;;;;5044863;28;20197;-48
2024/01/29 09:18:05;;;;;;;3.65;1.70;;;5.80;99.90;;;;;;5035054;28;20189;-48
2024/01/29 09:20:34;;;;;;;3.42;1.77;;;5.90;99.90;;;;;;5048145;28;20216;-48
2024/01/29 09:23:03;;;;;;;3.55;2.10;;;5.90;99.90;;;;;;5050226;28;20320;-48
2024/01/29 09:25:32;;;;;;;3.25;2.05;;;5.90;99.90;;;;;;5045685;28;20662;-47
2024/01/29 09:28:00;;;;;;;3.22;2.40;;;5.90;99.90;;;;;;5049209;28;20197;-47
2024/01/29 09:30:30;;;;;;;2.95;2.00;;;5.90;99.90;;;;;;5046365;28;20185;-46
2024/01/29 09:32:59;;;;;;;2.20;1.75;;;5.90;99.90;;;;;;5046377;28;20220;-47
2024/01/29 09:35:43;;;;;;;2.63;1.88;;;5.90;99.90;;;;;;5023096;28;20196;-45
2024/01/29 09:38:11;;;;;;;2.75;1.90;;;5.90;99.90;;;;;;5046814;28;20196;-47
2024/01/29 09:40:46;;;;;;;2.60;1.95;;;5.90;99.90;;;;;;5049077;28;20216;-48
2024/01/29 09:43:18;;;;;;;3.80;2.40;;;5.90;99.90;;;;;;5029515;28;20248;-46
2024/01/29 09:45:51;;;;;;;2.53;1.95;;;5.90;99.90;;;;;;5029060;28;20239;-45
2024/01/29 09:48:21;;;;;;;2.95;2.38;;;5.90;99.90;;;;;;5045842;28;20228;-48
2024/01/29 09:50:55;;;;;;;2.58;2.10;;;5.90;99.90;;;;;;5050563;28;20184;-47
2024/01/29 09:53:28;;;;;;;2.50;1.88;;;5.90;99.90;;;;;;5029159;28;20228;-46
2024/01/29 09:55:57;;;;;;;2.65;2.15;;;5.90;99.90;;;;;;5044667;28;20561;-45
2024/01/29 09:58:26;;;;;;;3.05;1.90;;;5.90;99.90;;;;;;5046590;28;20275;-48
2024/01/29 10:00:57;;;;;;;2.38;1.88;;;6.00;99.90;;;;;;5047599;28;20307;-46
2024/01/29 10:03:28;;;;;;;3.28;1.92;;;6.00;99.90;;;;;;5048663;28;20520;-48
2024/01/29 10:05:59;;;;;;;4.30;1.90;;;6.00;99.90;;;;;;5047878;28;20550;-47
2024/01/29 10:08:29;;;;;;;3.25;2.00;;;6.00;99.90;;;;;;5029477;28;20240;-47
2024/01/29 10:10:58;;;;;;;2.40;1.65;;;6.00;99.90;;;;;;5048778;28;20215;-48
2024/01/29 10:13:27;;;;;;;3.03;1.67;;;6.00;99.90;;;;;;5049108;28;20299;-48
2024/01/29 10:15:57;;;;;;;2.88;2.00;;;6.00;99.90;;;;;;5043755;28;20203;-46
2024/01/29 10:18:26;;;;;;;3.42;2.00;;;6.00;99.90;;;;;;5046537;28;21065;-45
2024/01/29 10:21:01;;;;;;;2.10;1.80;;;6.00;99.90;;;;;;5049184;28;20188;-46
2024/01/29 10:23:31;;;;;;;2.22;1.77;;;6.00;99.90;;;;;;5046201;28;20221;-45
2024/01/29 10:26:00;;;;;;;3.70;2.33;;;6.00;99.90;;;;;;5049569;28;20197;-46
2024/01/29 10:28:29;;;;;;;2.42;1.60;;;6.00;99.90;;;;;;5049419;28;20303;-46
2024/01/29 10:31:03;;;;;;;2.60;1.70;;;6.00;99.90;;;;;;5044676;28;20204;-46
2024/01/29 10:33:31;;;;;;;2.42;1.70;;;6.00;99.90;;;;;;5047898;28;20311;-45
2024/01/29 10:36:03;;;;;;;2.05;1.40;;;6.00;99.90;;;;;;5035527;28;20678;-45
2024/01/29 10:38:36;;;;;;;3.55;1.73;;;6.00;99.90;;;;;;5047273;28;20220;-45
2024/01/29 10:41:10;;;;;;;2.03;1.65;;;6.00;99.90;;;;;;5050460;28;20331;-46
2024/01/29 10:43:42;;;;;;;2.20;1.52;;;6.00;99.90;;;;;;5046386;28;20246;-49
2024/01/29 10:46:13;;;;;;;3.10;1.80;;;6.00;99.90;;;;;;5044943;28;20198;-49
2024/01/29 10:48:44;;;;;;;3.28;1.80;;;6.00;99.90;;;;;;5041789;28;20220;-48
2024/01/29 10:51:14;;;;;;;2.60;1.80;;;6.00;99.90;;;;;;5049030;28;20725;-50
2024/01/29 10:53:43;;;;;;;2.75;2.10;;;6.00;99.90;;;;;;5048733;28;20232;-46
2024/01/29 10:56:13;;;;;;;3.03;1.95;;;6.00;99.90;;;;;;5045886;28;20205;-47
2024/01/29 10:58:42;;;;;;;2.92;1.42;;;6.00;99.90;;;;;;5043287;28;20307;-47
2024/01/29 11:01:13;;;;;;;3.42;2.00;;;6.00;99.90;;;;;;5042282;28;20229;-49
2024/01/29 11:03:44;;;;;;;2.85;1.90;;;6.00;99.90;;;;;;5043733;28;20235;-48
2024/01/29 11:06:24;;;;;;;1.90;1.50;;;6.00;99.90;;;;;;5050295;28;20224;-50
2024/01/29 11:08:59;;;;;;;2.25;1.30;;;6.00;99.90;;;;;;5040782;28;20869;-47
2024/01/29 11:11:28;;;;;;;2.30;1.80;;;6.00;99.90;;;;;;5047558;28;20757;-46
2024/01/29 11:13:58;;;;;;;2.40;1.88;;;6.00;99.90;;;;;;5049619;28;20213;-46
2024/01/29 11:16:29;;;;;;;3.30;2.10;;;6.00;99.90;;;;;;5039313;28;20285;-46
2024/01/29 11:18:59;;;;;;;2.55;1.88;;;6.00;99.90;;;;;;5049010;28;20315;-48
2024/01/29 11:21:27;;;;;;;2.30;1.60;;;6.00;99.90;;;;;;5046479;28;20220;-46
2024/01/29 11:23:57;;;;;;;2.30;1.73;;;6.00;99.90;;;;;;5043715;28;20735;-46
2024/01/29 11:26:26;;;;;;;4.07;1.73;;;6.00;99.90;;;;;;5046164;28;20185;-47
2024/01/29 11:28:58;;;;;;;2.10;1.48;;;6.00;99.90;;;;;;5047306;28;20224;-47
2024/01/29 11:31:38;;;;;;;2.40;1.50;;;6.00;99.90;;;;;;5019587;28;20201;-47
2024/01/29 11:34:07;;;;;;;2.53;1.88;;;6.00;99.90;;;;;;5047629;28;20228;-47
2024/01/29 11:36:37;;;;;;;2.97;2.00;;;6.00;99.90;;;;;;5047750;28;20650;-47
2024/01/29 11:39:08;;;;;;;3.05;1.80;;;6.00;99.90;;;;;;5047593;28;20259;-47
2024/01/29 11:41:38;;;;;;;2.50;1.95;;;6.00;99.90;;;;;;5042650;28;20189;-46
2024/01/29 11:44:06;;;;;;;3.47;2.38;;;6.00;99.90;;;;;;5046447;28;20251;-46
2024/01/29 11:46:36;;;;;;;2.75;1.60;;;6.00;99.90;;;;;;5038300;28;20686;-45
2024/01/29 11:49:05;;;;;;;1.83;1.40;;;6.00;99.90;;;;;;5045756;28;20222;-47
2024/01/29 11:51:34;;;;;;;1.98;1.48;;;6.00;99.90;;;;;;5046839;28;20709;-48
2024/01/29 11:54:04;;;;;;;2.10;1.52;;;6.00;99.90;;;;;;5045394;28;20629;-48
2024/01/29 11:56:34;;;;;;;2.20;1.70;;;6.00;99.90;;;;;;5046041;28;20197;-47
2024/01/29 11:59:11;;;;;;;1.90;1.70;;;6.10;99.90;;;;;;5042437;28;20258;-51
2024/01/29 12:01:43;;;;;;;2.45;1.75;;;6.10;99.90;;;;;;5030103;28;20201;-48
2024/01/29 12:04:12;;;;;;;2.28;1.52;;;6.00;99.90;;;;;;5047260;28;20694;-47
2024/01/29 12:06:42;;;;;;;2.70;1.98;;;6.10;99.90;;;;;;5023970;28;20208;-47
2024/01/29 12:09:11;;;;;;;3.08;2.00;;;6.10;99.90;;;;;;5028685;28;20221;-47
2024/01/29 12:11:40;;;;;;;3.15;1.70;;;6.10;99.90;;;;;;5044626;28;20288;-47
2024/01/29 12:14:09;;;;;;;2.05;1.55;;;6.10;99.90;;;;;;5046198;28;20220;-48
2024/01/29 12:16:42;;;;;;;3.40;1.70;;;6.10;99.90;;;;;;5039079;28;20199;-47
2024/01/29 12:19:10;;;;;;;2.67;1.70;;;6.10;99.90;;;;;;5047061;28;20286;-46
2024/01/29 12:21:42;;;;;;;2.85;1.52;;;6.10;99.90;;;;;;5047202;28;20617;-46
2024/01/29 12:24:10;;;;;;;2.75;1.98;;;6.10;99.90;;;;;;5044125;28;20238;-48
2024/01/29 12:26:44;;;;;;;2.28;1.70;;;6.10;99.90;;;;;;5046527;28;20195;-47
2024/01/29 12:29:19;;;;;;;2.75;2.10;;;6.10;99.90;;;;;;5045308;28;20212;-48
2024/01/29 12:31:49;;;;;;;2.42;1.60;;;6.10;99.90;;;;;;5043709;28;20669;-48
2024/01/29 12:34:20;;;;;;;3.70;3.08;;;6.10;99.90;;;;;;5046801;28;20231;-48
2024/01/29 12:37:04;;;;;;;5.82;4.68;;;6.20;99.90;;;;;;5047661;28;20288;-47
2024/01/29 12:39:37;;;;;;;7.30;4.88;;;6.40;99.90;;;;;;5039758;28;20224;-47
2024/01/29 12:42:21;;;;;;;4.13;2.30;;;6.50;99.90;;;;;;5047472;28;20216;-47
2024/01/29 12:45:01;;;;;;;5.30;3.85;;;6.50;99.90;;;;;;5043308;28;20220;-49
2024/01/29 12:47:37;;;;;;;5.80;4.25;;;6.50;99.90;;;;;;5038339;28;20213;-46
2024/01/29 12:50:07;;;;;;;3.47;3.10;;;6.40;99.90;;;;;;5046903;28;20302;-47
2024/01/29 12:52:35;;;;;;;4.38;2.67;;;6.40;99.90;;;;;;5046676;28;21028;-47
2024/01/29 12:55:03;;;;;;;4.35;3.22;;;6.40;99.90;;;;;;5044771;28;20210;-48
2024/01/29 12:57:31;;;;;;;3.83;3.42;;;6.30;99.90;;;;;;5046666;28;20741;-46
2024/01/29 13:00:03;;;;;;;4.05;3.40;;;6.30;99.90;;;;;;5046898;28;20243;-47
2024/01/29 13:02:34;;;;;;;3.60;3.25;;;6.30;99.90;;;;;;5038168;28;20209;-48
2024/01/29 13:05:02;;;;;;;3.05;2.65;;;6.30;99.90;;;;;;5046544;28;20224;-46
2024/01/29 13:07:32;;;;;;;3.42;2.80;;;6.30;99.90;;;;;;5046298;28;20262;-47
2024/01/29 13:10:03;;;;;;;3.78;3.28;;;6.30;99.90;;;;;;5044506;28;20267;-46